IBE224 EHRD-EDDF
Flight info
| Callsign | IBE224 |
|---|---|
| Flight time | 1h 27m |
| Altitude | 35000 |
| Route | LUNIX Z739 MISGO DCT DIXAT T149 LIPMI T911 COL/N0416F230 T911 ROLIS ROLIS5A |
| Aircraft | A320/M-SDE3FGHIRWY/LB1 |
Departure
| Time | 2026-05-05 12:04 |
|---|---|
| Airport | Rotterdam The Hague Airport (EHRD) |
Arrival
| Time | 2026-05-05 13:31 |
|---|---|
| Airport | Frankfurt Main Airport (EDDF) |
| Time | Latitude | Longitude | Altitude | Speed | Heading |
|---|---|---|---|---|---|
| 2026-05-05 11:39 | 51.95145 | 4.43290 | 1 ft | 0 kts | 327° |
| 2026-05-05 11:57 | 51.95142 | 4.43293 | 1 ft | 2 kts | 327° |
| 2026-05-05 11:58 | 51.95129 | 4.43305 | 1 ft | 0 kts | 309° |
| 2026-05-05 11:58 | 51.95131 | 4.43301 | 1 ft | 3 kts | 311° |
| 2026-05-05 11:58 | 51.95133 | 4.43300 | 1 ft | 0 kts | 324° |
| 2026-05-05 11:59 | 51.95135 | 4.43297 | 1 ft | 1 kts | 324° |
| 2026-05-05 11:59 | 51.95136 | 4.43296 | 1 ft | 0 kts | 324° |
| 2026-05-05 12:00 | 51.95161 | 4.43283 | 1 ft | 13 kts | 339° |
| 2026-05-05 12:00 | 51.95168 | 4.43210 | 1 ft | 4 kts | 229° |
| 2026-05-05 12:01 | 51.95178 | 4.43092 | 2 ft | 16 kts | 321° |
| 2026-05-05 12:01 | 51.95201 | 4.43082 | 1 ft | 0 kts | 8° |
| 2026-05-05 12:01 | 51.95226 | 4.43089 | 1 ft | 12 kts | 9° |
| 2026-05-05 12:02 | 51.95289 | 4.43110 | 2 ft | 15 kts | 13° |
| 2026-05-05 12:02 | 51.95350 | 4.43200 | 2 ft | 12 kts | 40° |
| 2026-05-05 12:02 | 51.95368 | 4.43233 | 1 ft | 0 kts | 53° |
| 2026-05-05 12:03 | 51.95372 | 4.43241 | 1 ft | 5 kts | 52° |
| 2026-05-05 12:03 | 51.95523 | 4.43608 | -1 ft | 86 kts | 57° |
| 2026-05-05 12:03 | 51.96013 | 4.44789 | 32 ft | 160 kts | 55° |
| 2026-05-05 12:04 | 51.96663 | 4.46415 | 672 ft | 175 kts | 58° |
| 2026-05-05 12:04 | 51.97286 | 4.48116 | 1647 ft | 183 kts | 59° |
| 2026-05-05 12:04 | 51.97972 | 4.50009 | 2447 ft | 203 kts | 58° |
| 2026-05-05 12:04 | 51.98765 | 4.52192 | 2850 ft | 250 kts | 59° |
| 2026-05-05 12:05 | 51.99657 | 4.54962 | 2917 ft | 304 kts | 63° |
| 2026-05-05 12:05 | 52.00987 | 4.57936 | 2928 ft | 349 kts | 42° |
| 2026-05-05 12:05 | 52.02920 | 4.60360 | 3779 ft | 352 kts | 36° |
| 2026-05-05 12:05 | 52.04741 | 4.62538 | 5273 ft | 291 kts | 36° |
| 2026-05-05 12:06 | 52.06304 | 4.64419 | 5914 ft | 279 kts | 37° |
| 2026-05-05 12:06 | 52.07793 | 4.66330 | 6160 ft | 267 kts | 40° |
| 2026-05-05 12:06 | 52.09222 | 4.68349 | 6767 ft | 275 kts | 42° |
| 2026-05-05 12:06 | 52.10627 | 4.70483 | 7369 ft | 278 kts | 44° |
| 2026-05-05 12:07 | 52.12013 | 4.72705 | 7970 ft | 281 kts | 45° |
| 2026-05-05 12:07 | 52.13389 | 4.74978 | 8592 ft | 283 kts | 45° |
| 2026-05-05 12:07 | 52.14725 | 4.77345 | 9222 ft | 285 kts | 52° |
| 2026-05-05 12:07 | 52.15758 | 4.80123 | 9855 ft | 289 kts | 65° |
| 2026-05-05 12:08 | 52.16440 | 4.83257 | 10442 ft | 301 kts | 72° |
| 2026-05-05 12:08 | 52.17064 | 4.86586 | 11044 ft | 314 kts | 72° |
| 2026-05-05 12:08 | 52.17717 | 4.90025 | 11634 ft | 327 kts | 72° |
| 2026-05-05 12:08 | 52.18404 | 4.93633 | 12252 ft | 339 kts | 72° |
| 2026-05-05 12:09 | 52.19113 | 4.97354 | 12885 ft | 350 kts | 72° |
| 2026-05-05 12:09 | 52.19839 | 5.01192 | 13521 ft | 359 kts | 72° |
| 2026-05-05 12:09 | 52.20576 | 5.05121 | 14118 ft | 367 kts | 72° |
| 2026-05-05 12:09 | 52.21326 | 5.09150 | 14691 ft | 374 kts | 73° |
| 2026-05-05 12:10 | 52.22089 | 5.13248 | 15286 ft | 381 kts | 73° |
| 2026-05-05 12:10 | 52.22822 | 5.17441 | 15890 ft | 387 kts | 78° |
| 2026-05-05 12:10 | 52.23105 | 5.21817 | 16505 ft | 391 kts | 91° |
| 2026-05-05 12:10 | 52.22821 | 5.26233 | 17135 ft | 393 kts | 103° |
| 2026-05-05 12:11 | 52.21995 | 5.30479 | 17783 ft | 394 kts | 116° |
| 2026-05-05 12:11 | 52.20656 | 5.34378 | 18402 ft | 394 kts | 127° |
| 2026-05-05 12:11 | 52.19058 | 5.38028 | 18974 ft | 397 kts | 127° |
| 2026-05-05 12:11 | 52.17452 | 5.41696 | 19544 ft | 399 kts | 127° |
| 2026-05-05 12:12 | 52.15838 | 5.45398 | 20139 ft | 401 kts | 127° |
| 2026-05-05 12:12 | 52.14222 | 5.49110 | 20740 ft | 403 kts | 127° |
| 2026-05-05 12:12 | 52.12597 | 5.52837 | 21347 ft | 403 kts | 127° |
| 2026-05-05 12:12 | 52.10973 | 5.56557 | 21979 ft | 404 kts | 127° |
| 2026-05-05 12:13 | 52.09340 | 5.60286 | 22619 ft | 404 kts | 127° |
| 2026-05-05 12:13 | 52.07710 | 5.64000 | 23278 ft | 404 kts | 127° |
| 2026-05-05 12:13 | 52.06082 | 5.67644 | 23859 ft | 402 kts | 130° |
| 2026-05-05 12:13 | 52.04264 | 5.71091 | 24432 ft | 401 kts | 133° |
| 2026-05-05 12:14 | 52.02435 | 5.74502 | 25002 ft | 400 kts | 133° |
| 2026-05-05 12:14 | 52.00615 | 5.77894 | 25587 ft | 398 kts | 133° |
| 2026-05-05 12:14 | 51.98795 | 5.81284 | 26194 ft | 396 kts | 134° |
| 2026-05-05 12:14 | 51.96985 | 5.84654 | 26805 ft | 394 kts | 134° |
| 2026-05-05 12:15 | 51.95189 | 5.88005 | 27418 ft | 392 kts | 134° |
| 2026-05-05 12:15 | 51.93407 | 5.91334 | 28045 ft | 390 kts | 135° |
| 2026-05-05 12:15 | 51.91637 | 5.94637 | 28713 ft | 387 kts | 135° |
| 2026-05-05 12:15 | 51.89881 | 5.97908 | 29384 ft | 378 kts | 135° |
| 2026-05-05 12:16 | 51.88193 | 6.01057 | 29837 ft | 366 kts | 136° |
| 2026-05-05 12:16 | 51.86492 | 6.04211 | 29923 ft | 379 kts | 136° |
| 2026-05-05 12:16 | 51.84720 | 6.07479 | 29927 ft | 392 kts | 136° |
| 2026-05-05 12:16 | 51.82885 | 6.10842 | 29924 ft | 405 kts | 136° |
| 2026-05-05 12:17 | 51.80990 | 6.14304 | 29919 ft | 417 kts | 136° |
| 2026-05-05 12:17 | 51.79063 | 6.17816 | 29921 ft | 429 kts | 136° |
| 2026-05-05 12:17 | 51.75012 | 6.25205 | 29921 ft | 449 kts | 136° |
| 2026-05-05 12:18 | 51.70835 | 6.32846 | 29913 ft | 455 kts | 135° |
| 2026-05-05 12:18 | 51.66640 | 6.40516 | 29917 ft | 456 kts | 135° |
| 2026-05-05 12:19 | 51.62431 | 6.48154 | 29905 ft | 455 kts | 135° |
| 2026-05-05 12:19 | 51.58240 | 6.55721 | 29912 ft | 452 kts | 135° |
| 2026-05-05 12:20 | 51.54060 | 6.63250 | 29902 ft | 451 kts | 135° |
| 2026-05-05 12:20 | 51.49898 | 6.70712 | 29894 ft | 451 kts | 135° |
| 2026-05-05 12:21 | 51.45710 | 6.78225 | 29892 ft | 453 kts | 135° |
| 2026-05-05 12:21 | 51.41491 | 6.85766 | 29887 ft | 454 kts | 135° |
| 2026-05-05 12:22 | 51.37369 | 6.93460 | 29885 ft | 456 kts | 132° |
| 2026-05-05 12:22 | 51.33446 | 7.01464 | 29885 ft | 458 kts | 131° |
| 2026-05-05 12:23 | 51.29532 | 7.09533 | 29885 ft | 458 kts | 132° |
| 2026-05-05 12:23 | 51.24898 | 7.16293 | 29854 ft | 450 kts | 150° |
| 2026-05-05 12:24 | 51.19389 | 7.20907 | 29874 ft | 447 kts | 157° |
| 2026-05-05 12:24 | 51.13811 | 7.25320 | 29873 ft | 447 kts | 157° |
| 2026-05-05 12:25 | 51.08398 | 7.30246 | 29862 ft | 449 kts | 152° |
| 2026-05-05 12:25 | 51.03094 | 7.35448 | 29868 ft | 448 kts | 152° |
| 2026-05-05 12:26 | 50.97774 | 7.40636 | 29864 ft | 448 kts | 152° |
| 2026-05-05 12:26 | 50.92452 | 7.45807 | 29863 ft | 448 kts | 152° |
| 2026-05-05 12:27 | 50.87136 | 7.50945 | 29859 ft | 448 kts | 152° |
| 2026-05-05 12:27 | 50.81847 | 7.56035 | 29859 ft | 448 kts | 152° |
| 2026-05-05 12:28 | 50.76401 | 7.60728 | 29857 ft | 443 kts | 160° |
| 2026-05-05 12:28 | 50.70719 | 7.64514 | 29857 ft | 443 kts | 161° |
| 2026-05-05 12:29 | 50.65032 | 7.68284 | 29857 ft | 443 kts | 161° |
| 2026-05-05 12:29 | 50.59348 | 7.72048 | 29851 ft | 441 kts | 161° |
| 2026-05-05 12:30 | 50.53705 | 7.75786 | 29847 ft | 439 kts | 161° |
| 2026-05-05 12:30 | 50.48074 | 7.79506 | 29839 ft | 439 kts | 160° |
| 2026-05-05 12:31 | 50.45353 | 7.81700 | 29288 ft | 440 kts | 152° |
| 2026-05-05 12:31 | 50.42867 | 7.84524 | 28722 ft | 444 kts | 143° |
| 2026-05-05 12:31 | 50.40661 | 7.87978 | 28027 ft | 450 kts | 134° |
| 2026-05-05 12:31 | 50.38669 | 7.91783 | 27229 ft | 452 kts | 133° |
| 2026-05-05 12:32 | 50.36683 | 7.95609 | 26454 ft | 453 kts | 132° |
| 2026-05-05 12:32 | 50.34693 | 7.99450 | 25693 ft | 454 kts | 131° |
| 2026-05-05 12:32 | 50.32713 | 8.03271 | 24966 ft | 450 kts | 131° |
| 2026-05-05 12:32 | 50.30745 | 8.07049 | 24253 ft | 446 kts | 131° |
| 2026-05-05 12:33 | 50.28791 | 8.10786 | 23556 ft | 442 kts | 130° |
| 2026-05-05 12:33 | 50.26921 | 8.14584 | 22758 ft | 439 kts | 128° |
| 2026-05-05 12:33 | 50.25170 | 8.18458 | 21946 ft | 435 kts | 126° |
| 2026-05-05 12:33 | 50.23494 | 8.22378 | 21176 ft | 431 kts | 125° |
| 2026-05-05 12:34 | 50.21859 | 8.26276 | 20417 ft | 428 kts | 125° |
| 2026-05-05 12:34 | 50.20253 | 8.30085 | 19679 ft | 424 kts | 126° |
| 2026-05-05 12:34 | 50.18616 | 8.33900 | 18959 ft | 421 kts | 126° |
| 2026-05-05 12:34 | 50.16973 | 8.37665 | 18252 ft | 418 kts | 127° |
| 2026-05-05 12:35 | 50.15323 | 8.41388 | 17466 ft | 415 kts | 127° |
| 2026-05-05 12:35 | 50.13675 | 8.45075 | 16648 ft | 412 kts | 127° |
| 2026-05-05 12:35 | 50.12040 | 8.48727 | 15890 ft | 410 kts | 127° |
| 2026-05-05 12:35 | 50.10418 | 8.52357 | 15139 ft | 407 kts | 126° |
| 2026-05-05 12:36 | 50.09100 | 8.56230 | 14408 ft | 407 kts | 109° |
| 2026-05-05 12:36 | 50.08703 | 8.60584 | 13697 ft | 408 kts | 89° |
| 2026-05-05 12:36 | 50.09331 | 8.64876 | 12907 ft | 408 kts | 67° |
| 2026-05-05 12:36 | 50.10891 | 8.68478 | 12169 ft | 407 kts | 45° |
| 2026-05-05 12:37 | 50.13141 | 8.71012 | 11885 ft | 392 kts | 31° |
| 2026-05-05 12:37 | 50.15433 | 8.73173 | 11675 ft | 377 kts | 32° |
| 2026-05-05 12:37 | 50.17626 | 8.75265 | 11472 ft | 362 kts | 32° |
| 2026-05-05 12:37 | 50.19735 | 8.77292 | 11268 ft | 349 kts | 32° |
| 2026-05-05 12:38 | 50.21763 | 8.79243 | 11080 ft | 337 kts | 32° |
| 2026-05-05 12:38 | 50.23614 | 8.81372 | 10883 ft | 325 kts | 49° |
| 2026-05-05 12:38 | 50.24733 | 8.84324 | 10673 ft | 311 kts | 75° |
| 2026-05-05 12:38 | 50.24935 | 8.87593 | 10491 ft | 298 kts | 99° |
| 2026-05-05 12:39 | 50.24291 | 8.90587 | 10297 ft | 288 kts | 123° |
| 2026-05-05 12:39 | 50.23048 | 8.93015 | 10106 ft | 285 kts | 133° |
| 2026-05-05 12:39 | 50.22897 | 8.93281 | 10087 ft | 285 kts | 133° |
| 2026-05-05 13:14 | 50.22113 | 8.94952 | 9915 ft | 283 kts | 121° |
| 2026-05-05 13:14 | 50.20930 | 8.97432 | 9723 ft | 285 kts | 129° |
| 2026-05-05 13:15 | 50.19599 | 8.99783 | 9001 ft | 295 kts | 133° |
| 2026-05-05 13:15 | 50.18158 | 9.02158 | 8138 ft | 308 kts | 134° |
| 2026-05-05 13:15 | 50.16655 | 9.04620 | 7299 ft | 317 kts | 134° |
| 2026-05-05 13:15 | 50.15118 | 9.07151 | 6473 ft | 325 kts | 134° |
| 2026-05-05 13:16 | 50.13552 | 9.09741 | 5639 ft | 331 kts | 134° |
| 2026-05-05 13:16 | 50.11970 | 9.12355 | 5033 ft | 329 kts | 134° |
| 2026-05-05 13:16 | 50.10458 | 9.14862 | 4859 ft | 313 kts | 134° |
| 2026-05-05 13:16 | 50.08996 | 9.17272 | 4805 ft | 297 kts | 134° |
| 2026-05-05 13:17 | 50.07661 | 9.19489 | 4827 ft | 277 kts | 134° |
| 2026-05-05 13:17 | 50.06393 | 9.21608 | 4825 ft | 259 kts | 134° |
| 2026-05-05 13:17 | 50.05211 | 9.23596 | 4822 ft | 241 kts | 134° |
| 2026-05-05 13:17 | 50.04121 | 9.25449 | 4826 ft | 223 kts | 134° |
| 2026-05-05 13:18 | 50.03096 | 9.27217 | 4830 ft | 218 kts | 134° |
| 2026-05-05 13:18 | 50.02589 | 9.29291 | 5504 ft | 213 kts | 88° |
| 2026-05-05 13:18 | 50.03157 | 9.31501 | 5570 ft | 229 kts | 44° |
| 2026-05-05 13:18 | 50.04575 | 9.32441 | 5534 ft | 227 kts | 356° |
| 2026-05-05 13:19 | 50.05973 | 9.31507 | 5520 ft | 222 kts | 308° |
| 2026-05-05 13:19 | 50.06614 | 9.29350 | 5236 ft | 228 kts | 287° |
| 2026-05-05 13:19 | 50.07152 | 9.26923 | 4809 ft | 233 kts | 277° |
| 2026-05-05 13:19 | 50.07021 | 9.24520 | 4655 ft | 223 kts | 246° |
| 2026-05-05 13:20 | 50.06483 | 9.22278 | 4168 ft | 228 kts | 265° |
| 2026-05-05 13:20 | 50.06777 | 9.19711 | 3143 ft | 257 kts | 292° |
| 2026-05-05 13:20 | 50.07518 | 9.17044 | 2286 ft | 275 kts | 294° |
| 2026-05-05 13:20 | 50.08259 | 9.14549 | 2789 ft | 233 kts | 295° |
| 2026-05-05 13:21 | 50.08939 | 9.12396 | 3166 ft | 216 kts | 296° |
| 2026-05-05 13:21 | 50.09632 | 9.10328 | 3530 ft | 216 kts | 298° |
| 2026-05-05 13:21 | 50.10352 | 9.08274 | 3893 ft | 216 kts | 297° |
| 2026-05-05 13:21 | 50.11054 | 9.06227 | 4246 ft | 218 kts | 297° |
| 2026-05-05 13:22 | 50.11765 | 9.04139 | 4604 ft | 219 kts | 296° |
| 2026-05-05 13:22 | 50.12450 | 9.02014 | 4954 ft | 219 kts | 289° |
| 2026-05-05 13:22 | 50.12900 | 8.99750 | 5307 ft | 219 kts | 277° |
| 2026-05-05 13:22 | 50.13053 | 8.97376 | 5665 ft | 220 kts | 272° |
| 2026-05-05 13:23 | 50.13129 | 8.94994 | 6023 ft | 220 kts | 268° |
| 2026-05-05 13:23 | 50.12754 | 8.92713 | 6376 ft | 219 kts | 240° |
| 2026-05-05 13:23 | 50.12111 | 8.90557 | 6715 ft | 220 kts | 247° |
| 2026-05-05 13:23 | 50.11558 | 8.88320 | 7055 ft | 222 kts | 248° |
| 2026-05-05 13:24 | 50.11013 | 8.86067 | 7410 ft | 223 kts | 248° |
| 2026-05-05 13:24 | 50.10470 | 8.83796 | 7760 ft | 224 kts | 248° |
| 2026-05-05 13:24 | 50.09925 | 8.81505 | 8111 ft | 226 kts | 248° |
| 2026-05-05 13:24 | 50.09382 | 8.79208 | 8471 ft | 224 kts | 248° |
| 2026-05-05 13:25 | 50.08885 | 8.77091 | 8838 ft | 191 kts | 248° |
| 2026-05-05 13:25 | 50.08469 | 8.75315 | 9193 ft | 164 kts | 247° |
| 2026-05-05 13:25 | 50.08081 | 8.73678 | 9558 ft | 159 kts | 246° |
| 2026-05-05 13:25 | 50.07696 | 8.72062 | 9909 ft | 160 kts | 246° |
| 2026-05-05 13:26 | 50.07309 | 8.70437 | 10247 ft | 160 kts | 246° |
| 2026-05-05 13:26 | 50.06920 | 8.68806 | 10588 ft | 162 kts | 246° |
| 2026-05-05 13:26 | 50.06527 | 8.67160 | 10935 ft | 163 kts | 246° |
| 2026-05-05 13:26 | 50.06134 | 8.65507 | 11286 ft | 164 kts | 246° |
| 2026-05-05 13:27 | 50.05738 | 8.63842 | 11644 ft | 165 kts | 246° |
| 2026-05-05 13:27 | 50.05327 | 8.62141 | 11496 ft | 178 kts | 245° |
| 2026-05-05 13:27 | 50.04725 | 8.60161 | 10030 ft | 223 kts | 239° |
| 2026-05-05 13:27 | 50.03933 | 8.57972 | 8334 ft | 237 kts | 240° |
| 2026-05-05 13:28 | 50.03249 | 8.55607 | 6847 ft | 237 kts | 246° |
| 2026-05-05 13:28 | 50.02660 | 8.53281 | 5559 ft | 224 kts | 235° |
| 2026-05-05 13:28 | 50.01370 | 8.52331 | 4188 ft | 219 kts | 180° |
| 2026-05-05 13:28 | 49.99864 | 8.52242 | 2893 ft | 215 kts | 189° |
| 2026-05-05 13:29 | 49.98508 | 8.51586 | 2346 ft | 189 kts | 208° |
| 2026-05-05 13:29 | 49.97289 | 8.51789 | 2605 ft | 186 kts | 122° |
| 2026-05-05 13:29 | 49.97522 | 8.53543 | 2738 ft | 182 kts | 26° |
| 2026-05-05 13:29 | 49.98575 | 8.53042 | 1758 ft | 180 kts | 294° |
| 2026-05-05 13:30 | 49.99575 | 8.51985 | 1051 ft | 211 kts | 6° |
| 2026-05-05 13:30 | 50.00892 | 8.52680 | 430 ft | 200 kts | 5° |
| 2026-05-05 13:30 | 50.02087 | 8.52855 | 366 ft | 139 kts | 348° |
| 2026-05-05 13:30 | 50.02825 | 8.52832 | 360 ft | 64 kts | 359° |
| 2026-05-05 13:31 | 50.02989 | 8.52827 | 367 ft | 0 kts | 338° |